sensor_id;sensor_type;location;lat;lon;timestamp;pressure;altitude;pressure_sealevel;temperature
45393;BMP280;31129;44.810;10.334;2023-05-31T00:01:44;100885.22;;;21.79
45393;BMP280;31129;44.810;10.334;2023-05-31T00:04:09;100886.50;;;21.71
45393;BMP280;31129;44.810;10.334;2023-05-31T00:06:34;100893.91;;;21.76
45393;BMP280;31129;44.810;10.334;2023-05-31T00:09:01;100896.31;;;21.72
45393;BMP280;31129;44.810;10.334;2023-05-31T00:11:26;100892.63;;;21.77
45393;BMP280;31129;44.810;10.334;2023-05-31T00:13:52;100900.94;;;21.69
45393;BMP280;31129;44.810;10.334;2023-05-31T00:16:18;100896.78;;;21.63
45393;BMP280;31129;44.810;10.334;2023-05-31T00:18:44;100899.22;;;21.66
45393;BMP280;31129;44.810;10.334;2023-05-31T00:21:09;100910.16;;;21.51
45393;BMP280;31129;44.810;10.334;2023-05-31T00:23:35;100906.66;;;21.51
45393;BMP280;31129;44.810;10.334;2023-05-31T00:26:00;100906.41;;;21.41
45393;BMP280;31129;44.810;10.334;2023-05-31T00:28:26;100907.81;;;21.34
45393;BMP280;31129;44.810;10.334;2023-05-31T00:30:53;100904.28;;;21.34
45393;BMP280;31129;44.810;10.334;2023-05-31T00:33:18;100906.50;;;21.35
45393;BMP280;31129;44.810;10.334;2023-05-31T00:35:47;100901.44;;;21.26
45393;BMP280;31129;44.810;10.334;2023-05-31T00:38:12;100911.06;;;21.25
45393;BMP280;31129;44.810;10.334;2023-05-31T00:40:39;100915.38;;;21.34
45393;BMP280;31129;44.810;10.334;2023-05-31T00:43:04;100922.31;;;21.41
45393;BMP280;31129;44.810;10.334;2023-05-31T00:45:30;100921.63;;;21.48
45393;BMP280;31129;44.810;10.334;2023-05-31T00:47:59;100924.13;;;21.38
45393;BMP280;31129;44.810;10.334;2023-05-31T00:50:25;100923.31;;;21.30
45393;BMP280;31129;44.810;10.334;2023-05-31T00:52:53;100922.72;;;21.45
45393;BMP280;31129;44.810;10.334;2023-05-31T00:55:20;100927.25;;;21.34
45393;BMP280;31129;44.810;10.334;2023-05-31T00:57:46;100923.66;;;21.26
45393;BMP280;31129;44.810;10.334;2023-05-31T01:00:12;100923.97;;;21.23
45393;BMP280;31129;44.810;10.334;2023-05-31T01:02:38;100926.53;;;21.21
45393;BMP280;31129;44.810;10.334;2023-05-31T01:05:09;100927.59;;;21.31
45393;BMP280;31129;44.810;10.334;2023-05-31T01:07:35;100929.06;;;21.32
45393;BMP280;31129;44.810;10.334;2023-05-31T01:10:02;100933.69;;;21.29
45393;BMP280;31129;44.810;10.334;2023-05-31T01:12:41;100924.81;;;21.31
45393;BMP280;31129;44.810;10.334;2023-05-31T01:15:12;100931.66;;;21.30
45393;BMP280;31129;44.810;10.334;2023-05-31T01:20:58;100933.03;;;21.23
45393;BMP280;31129;44.810;10.334;2023-05-31T01:26:52;100922.44;;;21.35
45393;BMP280;31129;44.810;10.334;2023-05-31T01:29:21;100926.09;;;21.30
45393;BMP280;31129;44.810;10.334;2023-05-31T01:31:50;100916.06;;;21.27
45393;BMP280;31129;44.810;10.334;2023-05-31T01:34:16;100917.53;;;21.28
45393;BMP280;31129;44.810;10.334;2023-05-31T01:36:42;100918.94;;;21.21
45393;BMP280;31129;44.810;10.334;2023-05-31T01:39:09;100911.59;;;21.24
45393;BMP280;31129;44.810;10.334;2023-05-31T01:41:40;100904.28;;;21.34
45393;BMP280;31129;44.810;10.334;2023-05-31T01:44:08;100901.63;;;21.28
45393;BMP280;31129;44.810;10.334;2023-05-31T01:46:34;100900.78;;;21.20
45393;BMP280;31129;44.810;10.334;2023-05-31T01:49:01;100898.03;;;21.20
45393;BMP280;31129;44.810;10.334;2023-05-31T01:51:28;100906.09;;;21.11
45393;BMP280;31129;44.810;10.334;2023-05-31T01:53:56;100895.06;;;21.18
45393;BMP280;31129;44.810;10.334;2023-05-31T01:56:23;100899.28;;;21.19
45393;BMP280;31129;44.810;10.334;2023-05-31T01:58:50;100897.91;;;21.26
45393;BMP280;31129;44.810;10.334;2023-05-31T02:01:17;100891.94;;;21.22
45393;BMP280;31129;44.810;10.334;2023-05-31T02:03:43;100895.34;;;21.28
45393;BMP280;31129;44.810;10.334;2023-05-31T02:06:09;100893.97;;;21.21
45393;BMP280;31129;44.810;10.334;2023-05-31T02:08:38;100895.59;;;21.17
45393;BMP280;31129;44.810;10.334;2023-05-31T02:11:05;100886.47;;;21.29
45393;BMP280;31129;44.810;10.334;2023-05-31T02:13:31;100889.84;;;21.15
45393;BMP280;31129;44.810;10.334;2023-05-31T02:15:57;100906.38;;;21.07
45393;BMP280;31129;44.810;10.334;2023-05-31T02:18:26;100897.22;;;21.12
45393;BMP280;31129;44.810;10.334;2023-05-31T02:20:53;100902.06;;;21.19
45393;BMP280;31129;44.810;10.334;2023-05-31T02:23:19;100909.13;;;21.20
45393;BMP280;31129;44.810;10.334;2023-05-31T02:25:48;100903.66;;;21.28
45393;BMP280;31129;44.810;10.334;2023-05-31T02:28:17;100912.88;;;21.44
45393;BMP280;31129;44.810;10.334;2023-05-31T02:30:56;100909.22;;;21.49
45393;BMP280;31129;44.810;10.334;2023-05-31T02:33:23;100905.06;;;21.21
45393;BMP280;31129;44.810;10.334;2023-05-31T02:35:49;100905.94;;;21.16
45393;BMP280;31129;44.810;10.334;2023-05-31T02:38:15;100899.84;;;21.18
45393;BMP280;31129;44.810;10.334;2023-05-31T02:40:42;100911.38;;;21.22
45393;BMP280;31129;44.810;10.334;2023-05-31T02:43:08;100908.81;;;21.24
45393;BMP280;31129;44.810;10.334;2023-05-31T02:45:33;100909.41;;;21.09
45393;BMP280;31129;44.810;10.334;2023-05-31T02:47:59;100904.50;;;21.02
45393;BMP280;31129;44.810;10.334;2023-05-31T02:50:27;100913.66;;;21.10
45393;BMP280;31129;44.810;10.334;2023-05-31T02:52:54;100905.78;;;21.01
45393;BMP280;31129;44.810;10.334;2023-05-31T02:55:48;100904.63;;;20.96
45393;BMP280;31129;44.810;10.334;2023-05-31T02:58:23;100908.88;;;20.98
45393;BMP280;31129;44.810;10.334;2023-05-31T03:01:07;100908.22;;;20.91
45393;BMP280;31129;44.810;10.334;2023-05-31T03:03:38;100900.91;;;20.94
45393;BMP280;31129;44.810;10.334;2023-05-31T03:06:16;100912.72;;;20.94
45393;BMP280;31129;44.810;10.334;2023-05-31T03:08:45;100903.16;;;21.16
45393;BMP280;31129;44.810;10.334;2023-05-31T03:11:11;100909.63;;;20.98
45393;BMP280;31129;44.810;10.334;2023-05-31T03:13:37;100906.09;;;21.11
45393;BMP280;31129;44.810;10.334;2023-05-31T03:16:02;100905.25;;;21.03
45393;BMP280;31129;44.810;10.334;2023-05-31T03:18:28;100905.44;;;21.05
45393;BMP280;31129;44.810;10.334;2023-05-31T03:20:55;100909.31;;;20.88
45393;BMP280;31129;44.810;10.334;2023-05-31T03:23:20;100901.91;;;21.04
45393;BMP280;31129;44.810;10.334;2023-05-31T03:25:46;100907.06;;;21.00
45393;BMP280;31129;44.810;10.334;2023-05-31T03:28:11;100899.22;;;21.12
45393;BMP280;31129;44.810;10.334;2023-05-31T03:30:38;100908.69;;;20.95
45393;BMP280;31129;44.810;10.334;2023-05-31T03:33:05;100900.34;;;20.95
45393;BMP280;31129;44.810;10.334;2023-05-31T03:35:31;100899.38;;;20.93
45393;BMP280;31129;44.810;10.334;2023-05-31T03:38:02;100893.84;;;20.93
45393;BMP280;31129;44.810;10.334;2023-05-31T03:40:28;100901.81;;;21.10
45393;BMP280;31129;44.810;10.334;2023-05-31T03:42:54;100898.41;;;20.90
45393;BMP280;31129;44.810;10.334;2023-05-31T03:45:21;100902.16;;;20.93
45393;BMP280;31129;44.810;10.334;2023-05-31T03:47:47;100909.94;;;20.94
45393;BMP280;31129;44.810;10.334;2023-05-31T03:50:14;100902.88;;;21.07
45393;BMP280;31129;44.810;10.334;2023-05-31T03:52:39;100906.13;;;20.98
45393;BMP280;31129;44.810;10.334;2023-05-31T03:55:05;100908.66;;;21.09
45393;BMP280;31129;44.810;10.334;2023-05-31T03:57:31;100913.19;;;21.19
45393;BMP280;31129;44.810;10.334;2023-05-31T03:59:56;100918.66;;;21.12
45393;BMP280;31129;44.810;10.334;2023-05-31T04:02:22;100913.13;;;21.12
45393;BMP280;31129;44.810;10.334;2023-05-31T04:04:47;100920.78;;;21.19
45393;BMP280;31129;44.810;10.334;2023-05-31T04:07:16;100920.66;;;21.24
45393;BMP280;31129;44.810;10.334;2023-05-31T04:09:42;100918.09;;;21.26
45393;BMP280;31129;44.810;10.334;2023-05-31T04:12:08;100919.81;;;21.16
45393;BMP280;31129;44.810;10.334;2023-05-31T04:14:34;100923.09;;;21.28
45393;BMP280;31129;44.810;10.334;2023-05-31T04:17:01;100918.56;;;21.38
45393;BMP280;31129;44.810;10.334;2023-05-31T04:19:27;100926.72;;;21.57
45393;BMP280;31129;44.810;10.334;2023-05-31T04:21:52;100916.81;;;21.69
45393;BMP280;31129;44.810;10.334;2023-05-31T04:24:18;100920.78;;;21.73
45393;BMP280;31129;44.810;10.334;2023-05-31T04:26:43;100913.59;;;21.78
45393;BMP280;31129;44.810;10.334;2023-05-31T04:29:10;100917.66;;;21.77
45393;BMP280;31129;44.810;10.334;2023-05-31T04:31:37;100922.44;;;21.76
45393;BMP280;31129;44.810;10.334;2023-05-31T04:34:06;100920.06;;;21.80
45393;BMP280;31129;44.810;10.334;2023-05-31T04:36:33;100923.06;;;21.62
45393;BMP280;31129;44.810;10.334;2023-05-31T04:39:01;100923.78;;;21.55
45393;BMP280;31129;44.810;10.334;2023-05-31T04:41:31;100933.31;;;21.67
45393;BMP280;31129;44.810;10.334;2023-05-31T04:43:56;100934.66;;;21.73
45393;BMP280;31129;44.810;10.334;2023-05-31T04:46:24;100934.78;;;21.68
45393;BMP280;31129;44.810;10.334;2023-05-31T04:48:50;100932.50;;;21.59
45393;BMP280;31129;44.810;10.334;2023-05-31T04:51:18;100935.69;;;21.63
45393;BMP280;31129;44.810;10.334;2023-05-31T04:53:45;100944.56;;;21.82
45393;BMP280;31129;44.810;10.334;2023-05-31T04:56:12;100941.16;;;21.76
45393;BMP280;31129;44.810;10.334;2023-05-31T04:58:38;100930.56;;;21.95
45393;BMP280;31129;44.810;10.334;2023-05-31T05:01:05;100935.78;;;21.99
45393;BMP280;31129;44.810;10.334;2023-05-31T05:03:52;100939.72;;;22.03
45393;BMP280;31129;44.810;10.334;2023-05-31T05:06:18;100936.81;;;22.09
45393;BMP280;31129;44.810;10.334;2023-05-31T05:08:45;100939.97;;;22.13
45393;BMP280;31129;44.810;10.334;2023-05-31T05:11:12;100943.09;;;22.09
45393;BMP280;31129;44.810;10.334;2023-05-31T05:13:38;100939.97;;;22.13
45393;BMP280;31129;44.810;10.334;2023-05-31T05:16:16;100940.78;;;22.21
45393;BMP280;31129;44.810;10.334;2023-05-31T05:18:42;100949.59;;;22.12
45393;BMP280;31129;44.810;10.334;2023-05-31T05:21:07;100948.84;;;22.32
45393;BMP280;31129;44.810;10.334;2023-05-31T05:23:36;100943.22;;;22.24
45393;BMP280;31129;44.810;10.334;2023-05-31T05:26:03;100944.34;;;22.29
45393;BMP280;31129;44.810;10.334;2023-05-31T05:28:29;100938.34;;;22.17
45393;BMP280;31129;44.810;10.334;2023-05-31T05:30:55;100945.97;;;22.17
45393;BMP280;31129;44.810;10.334;2023-05-31T05:33:22;100947.09;;;22.21
45393;BMP280;31129;44.810;10.334;2023-05-31T05:35:48;100942.69;;;22.26
45393;BMP280;31129;44.810;10.334;2023-05-31T05:38:14;100944.34;;;22.29
45393;BMP280;31129;44.810;10.334;2023-05-31T05:40:39;100948.41;;;22.28
45393;BMP280;31129;44.810;10.334;2023-05-31T05:43:08;100945.78;;;22.22
45393;BMP280;31129;44.810;10.334;2023-05-31T05:45:46;100942.31;;;22.30
45393;BMP280;31129;44.810;10.334;2023-05-31T05:48:12;100944.34;;;22.29
45393;BMP280;31129;44.810;10.334;2023-05-31T05:50:39;100946.91;;;22.27
45393;BMP280;31129;44.810;10.334;2023-05-31T05:53:08;100953.84;;;22.34
45393;BMP280;31129;44.810;10.334;2023-05-31T05:55:33;100962.03;;;22.39
45393;BMP280;31129;44.810;10.334;2023-05-31T05:58:00;100961.13;;;22.44
45393;BMP280;31129;44.810;10.334;2023-05-31T06:00:45;100967.91;;;22.56
45393;BMP280;31129;44.810;10.334;2023-05-31T06:03:12;100963.97;;;22.52
45393;BMP280;31129;44.810;10.334;2023-05-31T06:05:39;100966.94;;;22.54
45393;BMP280;31129;44.810;10.334;2023-05-31T06:08:05;100968.72;;;22.44
45393;BMP280;31129;44.810;10.334;2023-05-31T06:10:31;100973.09;;;22.60
45393;BMP280;31129;44.810;10.334;2023-05-31T06:12:57;100976.09;;;22.62
45393;BMP280;31129;44.810;10.334;2023-05-31T06:15:23;100978.47;;;22.58
45393;BMP280;31129;44.810;10.334;2023-05-31T06:17:49;100983.84;;;22.56
45393;BMP280;31129;44.810;10.334;2023-05-31T06:20:14;100984.44;;;22.62
45393;BMP280;31129;44.810;10.334;2023-05-31T06:22:41;100980.03;;;22.74
45393;BMP280;31129;44.810;10.334;2023-05-31T06:25:07;100983.34;;;22.73
45393;BMP280;31129;44.810;10.334;2023-05-31T06:27:33;100985.28;;;22.85
45393;BMP280;31129;44.810;10.334;2023-05-31T06:30:02;100978.63;;;22.52
45393;BMP280;31129;44.810;10.334;2023-05-31T06:32:32;100980.69;;;22.59
45393;BMP280;31129;44.810;10.334;2023-05-31T06:34:57;100981.75;;;22.77
45393;BMP280;31129;44.810;10.334;2023-05-31T06:37:23;100994.56;;;22.88
45393;BMP280;31129;44.810;10.334;2023-05-31T06:39:49;100983.91;;;22.63
45393;BMP280;31129;44.810;10.334;2023-05-31T06:42:15;100983.97;;;22.79
45393;BMP280;31129;44.810;10.334;2023-05-31T06:44:56;100984.94;;;22.89
45393;BMP280;31129;44.810;10.334;2023-05-31T06:47:34;100972.94;;;23.01
45393;BMP280;31129;44.810;10.334;2023-05-31T06:50:29;100982.03;;;23.09
45393;BMP280;31129;44.810;10.334;2023-05-31T06:53:08;100984.50;;;23.28
45393;BMP280;31129;44.810;10.334;2023-05-31T06:55:39;100985.84;;;23.27
45393;BMP280;31129;44.810;10.334;2023-05-31T06:58:05;100972.28;;;23.31
45393;BMP280;31129;44.810;10.334;2023-05-31T07:00:33;100980.06;;;23.25
45393;BMP280;31129;44.810;10.334;2023-05-31T07:02:58;100979.13;;;23.23
45393;BMP280;31129;44.810;10.334;2023-05-31T07:05:25;100980.44;;;23.22
45393;BMP280;31129;44.810;10.334;2023-05-31T07:07:51;100976.91;;;23.29
45393;BMP280;31129;44.810;10.334;2023-05-31T07:10:18;100982.66;;;23.23
45393;BMP280;31129;44.810;10.334;2023-05-31T07:12:44;100975.81;;;23.24
45393;BMP280;31129;44.810;10.334;2023-05-31T07:15:11;100973.53;;;23.15
45393;BMP280;31129;44.810;10.334;2023-05-31T07:17:36;100975.94;;;23.19
45393;BMP280;31129;44.810;10.334;2023-05-31T07:20:05;100978.13;;;22.97
45393;BMP280;31129;44.810;10.334;2023-05-31T07:22:32;100977.19;;;23.02
45393;BMP280;31129;44.810;10.334;2023-05-31T07:24:58;100968.88;;;23.18
45393;BMP280;31129;44.810;10.334;2023-05-31T07:27:23;100972.28;;;23.31
45393;BMP280;31129;44.810;10.334;2023-05-31T07:29:49;100972.13;;;23.44
45393;BMP280;31129;44.810;10.334;2023-05-31T07:32:15;100973.97;;;23.42
45393;BMP280;31129;44.810;10.334;2023-05-31T07:34:40;100969.16;;;23.42
45393;BMP280;31129;44.810;10.334;2023-05-31T07:37:06;100964.34;;;23.58
45393;BMP280;31129;44.810;10.334;2023-05-31T07:39:32;100969.16;;;23.80
45393;BMP280;31129;44.810;10.334;2023-05-31T07:41:57;100971.94;;;23.80
45393;BMP280;31129;44.810;10.334;2023-05-31T07:44:24;100969.38;;;23.75
45393;BMP280;31129;44.810;10.334;2023-05-31T07:46:50;100966.00;;;23.76
45393;BMP280;31129;44.810;10.334;2023-05-31T07:49:16;100968.44;;;23.72
45393;BMP280;31129;44.810;10.334;2023-05-31T07:51:41;100966.00;;;23.76
45393;BMP280;31129;44.810;10.334;2023-05-31T07:54:07;100973.84;;;24.01
45393;BMP280;31129;44.810;10.334;2023-05-31T07:56:32;100975.66;;;24.21
45393;BMP280;31129;44.810;10.334;2023-05-31T07:58:58;100981.59;;;24.25
45393;BMP280;31129;44.810;10.334;2023-05-31T08:01:23;100976.41;;;24.29
45393;BMP280;31129;44.810;10.334;2023-05-31T08:03:49;100970.09;;;23.90
45393;BMP280;31129;44.810;10.334;2023-05-31T08:06:16;100966.97;;;23.79
45393;BMP280;31129;44.810;10.334;2023-05-31T08:08:42;100968.44;;;24.03
45393;BMP280;31129;44.810;10.334;2023-05-31T08:11:08;100971.22;;;24.18
45393;BMP280;31129;44.810;10.334;2023-05-31T08:13:33;100975.09;;;24.30
45393;BMP280;31129;44.810;10.334;2023-05-31T08:15:59;100973.22;;;24.32
45393;BMP280;31129;44.810;10.334;2023-05-31T08:18:27;100967.47;;;24.23
45393;BMP280;31129;44.810;10.334;2023-05-31T08:20:53;100962.78;;;24.33
45393;BMP280;31129;44.810;10.334;2023-05-31T08:23:20;100966.69;;;24.37
45393;BMP280;31129;44.810;10.334;2023-05-31T08:25:46;100967.03;;;24.41
45393;BMP280;31129;44.810;10.334;2023-05-31T08:28:11;100959.69;;;24.14
45393;BMP280;31129;44.810;10.334;2023-05-31T08:30:37;100962.84;;;24.03
45393;BMP280;31129;44.810;10.334;2023-05-31T08:33:05;100965.66;;;24.03
45393;BMP280;31129;44.810;10.334;2023-05-31T08:35:31;100968.94;;;24.31
45393;BMP280;31129;44.810;10.334;2023-05-31T08:37:57;100966.66;;;24.60
45393;BMP280;31129;44.810;10.334;2023-05-31T08:40:23;100963.28;;;24.62
45393;BMP280;31129;44.810;10.334;2023-05-31T08:42:57;100975.16;;;24.77
45393;BMP280;31129;44.810;10.334;2023-05-31T08:45:26;100976.94;;;24.90
45393;BMP280;31129;44.810;10.334;2023-05-31T08:48:13;100967.41;;;24.93
45393;BMP280;31129;44.810;10.334;2023-05-31T08:50:39;100972.13;;;24.83
45393;BMP280;31129;44.810;10.334;2023-05-31T08:53:06;100965.13;;;24.67
45393;BMP280;31129;44.810;10.334;2023-05-31T08:55:33;100967.91;;;24.74
45393;BMP280;31129;44.810;10.334;2023-05-31T08:58:00;100968.03;;;24.84
45393;BMP280;31129;44.810;10.334;2023-05-31T09:00:27;100963.63;;;24.66
45393;BMP280;31129;44.810;10.334;2023-05-31T09:02:53;100972.34;;;24.70
45393;BMP280;31129;44.810;10.334;2023-05-31T09:05:19;100968.78;;;24.84
45393;BMP280;31129;44.810;10.334;2023-05-31T09:07:44;100960.94;;;24.83
45393;BMP280;31129;44.810;10.334;2023-05-31T09:10:12;100966.41;;;24.66
45393;BMP280;31129;44.810;10.334;2023-05-31T09:12:40;100965.03;;;24.90
45393;BMP280;31129;44.810;10.334;2023-05-31T09:15:06;100962.41;;;24.92
45393;BMP280;31129;44.810;10.334;2023-05-31T09:17:32;100963.16;;;25.17
45393;BMP280;31129;44.810;10.334;2023-05-31T09:20:00;100969.13;;;25.21
45393;BMP280;31129;44.810;10.334;2023-05-31T09:22:26;100968.50;;;25.30
45393;BMP280;31129;44.810;10.334;2023-05-31T09:24:58;100969.13;;;25.21
45393;BMP280;31129;44.810;10.334;2023-05-31T09:27:26;100968.84;;;25.34
45393;BMP280;31129;44.810;10.334;2023-05-31T09:29:54;100969.41;;;25.32
45393;BMP280;31129;44.810;10.334;2023-05-31T09:32:20;100967.66;;;25.45
45393;BMP280;31129;44.810;10.334;2023-05-31T09:34:46;100962.88;;;25.38
45393;BMP280;31129;44.810;10.334;2023-05-31T09:37:29;100962.72;;;25.36
45393;BMP280;31129;44.810;10.334;2023-05-31T09:39:55;100960.75;;;25.46
45393;BMP280;31129;44.810;10.334;2023-05-31T09:42:23;100964.75;;;25.35
45393;BMP280;31129;44.810;10.334;2023-05-31T09:44:49;100960.69;;;25.28
45393;BMP280;31129;44.810;10.334;2023-05-31T09:47:15;100965.50;;;25.77
45393;BMP280;31129;44.810;10.334;2023-05-31T09:49:42;100966.38;;;25.70
45393;BMP280;31129;44.810;10.334;2023-05-31T09:52:12;100965.00;;;25.96
45393;BMP280;31129;44.810;10.334;2023-05-31T09:54:39;100958.59;;;26.03
45393;BMP280;31129;44.810;10.334;2023-05-31T09:57:05;100960.78;;;26.05
45393;BMP280;31129;44.810;10.334;2023-05-31T09:59:34;100966.38;;;25.88
45393;BMP280;31129;44.810;10.334;2023-05-31T10:02:00;100953.72;;;26.04
45393;BMP280;31129;44.810;10.334;2023-05-31T10:04:26;100957.16;;;25.95
45393;BMP280;31129;44.810;10.334;2023-05-31T10:06:53;100951.22;;;25.91
45393;BMP280;31129;44.810;10.334;2023-05-31T10:09:19;100949.69;;;26.32
45393;BMP280;31129;44.810;10.334;2023-05-31T10:11:50;100942.78;;;26.15
45393;BMP280;31129;44.810;10.334;2023-05-31T10:14:20;100943.94;;;26.30
45393;BMP280;31129;44.810;10.334;2023-05-31T10:16:49;100942.69;;;26.23
45393;BMP280;31129;44.810;10.334;2023-05-31T10:19:46;100947.75;;;26.51
45393;BMP280;31129;44.810;10.334;2023-05-31T10:22:14;100942.84;;;26.08
45393;BMP280;31129;44.810;10.334;2023-05-31T10:24:51;100951.38;;;26.61
45393;BMP280;31129;44.810;10.334;2023-05-31T10:27:29;100949.34;;;26.62
45393;BMP280;31129;44.810;10.334;2023-05-31T10:30:01;100934.44;;;26.69
45393;BMP280;31129;44.810;10.334;2023-05-31T10:32:40;100937.94;;;26.60
45393;BMP280;31129;44.810;10.334;2023-05-31T10:35:09;100932.13;;;26.48
45393;BMP280;31129;44.810;10.334;2023-05-31T10:37:36;100930.09;;;26.76
45393;BMP280;31129;44.810;10.334;2023-05-31T10:40:13;100927.75;;;26.82
45393;BMP280;31129;44.810;10.334;2023-05-31T10:42:43;100924.56;;;26.95
45393;BMP280;31129;44.810;10.334;2023-05-31T10:45:24;100929.06;;;27.07
45393;BMP280;31129;44.810;10.334;2023-05-31T10:50:55;100924.53;;;26.41
45393;BMP280;31129;44.810;10.334;2023-05-31T10:53:22;100922.88;;;26.55
45393;BMP280;31129;44.810;10.334;2023-05-31T10:55:47;100916.09;;;26.32
45393;BMP280;31129;44.810;10.334;2023-05-31T10:58:27;100920.97;;;26.75
45393;BMP280;31129;44.810;10.334;2023-05-31T11:00:57;100914.97;;;26.88
45393;BMP280;31129;44.810;10.334;2023-05-31T11:03:27;100910.34;;;27.10
45393;BMP280;31129;44.810;10.334;2023-05-31T11:05:58;100911.00;;;27.37
45393;BMP280;31129;44.810;10.334;2023-05-31T11:08:29;100911.63;;;27.55
45393;BMP280;31129;44.810;10.334;2023-05-31T11:19:20;100906.31;;;27.49
45393;BMP280;31129;44.810;10.334;2023-05-31T11:21:50;100891.25;;;27.45
45393;BMP280;31129;44.810;10.334;2023-05-31T11:24:38;100904.75;;;27.10
45393;BMP280;31129;44.810;10.334;2023-05-31T11:27:05;100905.00;;;27.60
45393;BMP280;31129;44.810;10.334;2023-05-31T11:32:10;100895.78;;;27.21
45393;BMP280;31129;44.810;10.334;2023-05-31T11:34:48;100900.53;;;27.47
45393;BMP280;31129;44.810;10.334;2023-05-31T11:37:15;100904.13;;;27.11
45393;BMP280;31129;44.810;10.334;2023-05-31T11:39:44;100895.53;;;27.00
45393;BMP280;31129;44.810;10.334;2023-05-31T11:42:10;100896.94;;;26.82
45393;BMP280;31129;44.810;10.334;2023-05-31T11:44:41;100898.59;;;26.85
45393;BMP280;31129;44.810;10.334;2023-05-31T11:47:10;100879.81;;;26.51
45393;BMP280;31129;44.810;10.334;2023-05-31T11:49:35;100882.75;;;26.53
45393;BMP280;31129;44.810;10.334;2023-05-31T11:52:02;100893.09;;;26.77
45393;BMP280;31129;44.810;10.334;2023-05-31T11:54:30;100884.81;;;27.06
45393;BMP280;31129;44.810;10.334;2023-05-31T11:56:58;100887.06;;;26.81
45393;BMP280;31129;44.810;10.334;2023-05-31T11:59:24;100894.94;;;26.65
45393;BMP280;31129;44.810;10.334;2023-05-31T12:01:56;100884.75;;;26.60
45393;BMP280;31129;44.810;10.334;2023-05-31T12:06:56;100884.22;;;27.17
45393;BMP280;31129;44.810;10.334;2023-05-31T12:09:26;100886.84;;;27.80
45393;BMP280;31129;44.810;10.334;2023-05-31T12:11:53;100890.09;;;28.15
45393;BMP280;31129;44.810;10.334;2023-05-31T12:14:18;100886.25;;;27.91
45393;BMP280;31129;44.810;10.334;2023-05-31T12:16:46;100880.03;;;27.74
45393;BMP280;31129;44.810;10.334;2023-05-31T12:19:14;100874.00;;;27.96
45393;BMP280;31129;44.810;10.334;2023-05-31T12:21:42;100870.78;;;28.50
45393;BMP280;31129;44.810;10.334;2023-05-31T12:24:12;100871.50;;;28.00
45393;BMP280;31129;44.810;10.334;2023-05-31T12:26:38;100868.13;;;27.63
45393;BMP280;31129;44.810;10.334;2023-05-31T12:29:04;100858.91;;;28.01
45393;BMP280;31129;44.810;10.334;2023-05-31T12:31:34;100859.81;;;27.56
45393;BMP280;31129;44.810;10.334;2023-05-31T12:34:09;100855.66;;;27.28
45393;BMP280;31129;44.810;10.334;2023-05-31T12:36:40;100849.78;;;27.82
45393;BMP280;31129;44.810;10.334;2023-05-31T12:39:14;100844.53;;;28.26
45393;BMP280;31129;44.810;10.334;2023-05-31T12:41:44;100833.22;;;27.86
45393;BMP280;31129;44.810;10.334;2023-05-31T12:44:11;100823.78;;;27.33
45393;BMP280;31129;44.810;10.334;2023-05-31T12:46:37;100837.78;;;27.24
45393;BMP280;31129;44.810;10.334;2023-05-31T12:49:23;100837.75;;;28.20
45393;BMP280;31129;44.810;10.334;2023-05-31T12:52:04;100832.63;;;28.87
45393;BMP280;31129;44.810;10.334;2023-05-31T12:54:34;100823.56;;;28.27
45393;BMP280;31129;44.810;10.334;2023-05-31T12:57:02;100832.06;;;27.70
45393;BMP280;31129;44.810;10.334;2023-05-31T12:59:28;100830.88;;;27.63
45393;BMP280;31129;44.810;10.334;2023-05-31T13:01:54;100828.72;;;28.21
45393;BMP280;31129;44.810;10.334;2023-05-31T13:04:21;100831.09;;;28.65
45393;BMP280;31129;44.810;10.334;2023-05-31T13:06:47;100821.59;;;29.01
45393;BMP280;31129;44.810;10.334;2023-05-31T13:09:13;100823.44;;;28.87
45393;BMP280;31129;44.810;10.334;2023-05-31T13:11:39;100825.66;;;29.31
45393;BMP280;31129;44.810;10.334;2023-05-31T13:14:07;100824.00;;;29.70
45393;BMP280;31129;44.810;10.334;2023-05-31T13:16:34;100820.25;;;29.23
45393;BMP280;31129;44.810;10.334;2023-05-31T13:19:01;100827.31;;;29.24
45393;BMP280;31129;44.810;10.334;2023-05-31T13:21:28;100812.16;;;29.50
45393;BMP280;31129;44.810;10.334;2023-05-31T13:23:54;100802.97;;;29.38
45393;BMP280;31129;44.810;10.334;2023-05-31T13:26:21;100812.72;;;28.74
45393;BMP280;31129;44.810;10.334;2023-05-31T13:28:47;100804.25;;;28.52
45393;BMP280;31129;44.810;10.334;2023-05-31T13:31:13;100807.38;;;28.78
45393;BMP280;31129;44.810;10.334;2023-05-31T13:33:38;100811.34;;;29.27
45393;BMP280;31129;44.810;10.334;2023-05-31T13:36:17;100808.72;;;29.73
45393;BMP280;31129;44.810;10.334;2023-05-31T13:38:42;100806.16;;;29.89
45393;BMP280;31129;44.810;10.334;2023-05-31T13:41:08;100799.50;;;30.40
45393;BMP280;31129;44.810;10.334;2023-05-31T13:43:33;100801.03;;;29.97
45393;BMP280;31129;44.810;10.334;2023-05-31T13:45:59;100800.41;;;29.87
45393;BMP280;31129;44.810;10.334;2023-05-31T13:48:26;100798.72;;;30.17
45393;BMP280;31129;44.810;10.334;2023-05-31T13:50:51;100807.06;;;30.49
45393;BMP280;31129;44.810;10.334;2023-05-31T13:53:20;100793.38;;;30.55
45393;BMP280;31129;44.810;10.334;2023-05-31T13:55:47;100797.03;;;30.70
45393;BMP280;31129;44.810;10.334;2023-05-31T13:58:13;100802.41;;;30.54
45393;BMP280;31129;44.810;10.334;2023-05-31T14:00:38;100787.53;;;30.77
45393;BMP280;31129;44.810;10.334;2023-05-31T14:03:04;100782.84;;;30.93
45393;BMP280;31129;44.810;10.334;2023-05-31T14:05:32;100791.66;;;30.99
45393;BMP280;31129;44.810;10.334;2023-05-31T14:07:57;100783.88;;;30.74
45393;BMP280;31129;44.810;10.334;2023-05-31T14:10:23;100777.63;;;31.12
45393;BMP280;31129;44.810;10.334;2023-05-31T14:12:49;100772.94;;;31.42